Wan Hai 273 — 9V7586 — position and weather

sailwx.info

Track history (hours):
 
Tides and Currents Weather Stations Pressure Air Temp Water Temp Dewpoint Dewpoint Depression Visibility Wind Speed Wind Dir Waves Ship Positions

Wan Hai 273

Last reported at 2016-Jul-28 19:32 UTC. Time now 2016-Jul-28 20:19 UTC.
Position N 22°17' E 114°06'.

Length 172 m; draft 9.4 m.

Type: Cargo ship. MMSI: 566406000.

Date/timePositionNaut miles runAvg speedWind from/ knotsBaromVisibWave heightAir tempDewpointWater temp
2016-Jul-28 19:32N 22°17' E 114°06'1110.8
2016-Jul-28 18:33N 22°22' E 113°55'6 6.2
2016-Jul-28 17:33N 22°28' E 113°54'0 0.2
2016-Jul-28 16:29N 22°28' E 113°54'0 0.0
2016-Jul-28 15:29N 22°28' E 113°54'0 0.0
2016-Jul-28 14:29N 22°28' E 113°54'0 0.0
2016-Jul-28 13:23N 22°28' E 113°54'0 0.0
2016-Jul-28 12:29N 22°28' E 113°54'0 0.0
2016-Jul-28 11:23N 22°28' E 113°54'0 0.0
2016-Jul-28 10:23N 22°28' E 113°54'0 0.0
2016-Jul-28 09:29N 22°28' E 113°54'14 7.1
2016-Jul-28 07:29N 22°20' E 114°07'0 0.1
2016-Jul-28 06:33N 22°20' E 114°07'0 0.0
2016-Jul-28 05:21N 22°20' E 114°07'0 0.0
2016-Jul-28 04:33N 22°20' E 114°07'0 0.0
2016-Jul-28 03:33N 22°20' E 114°07'0 0.0
2016-Jul-28 00:15N 22°20' E 114°07'0 0.0
2016-Jul-27 23:33N 22°20' E 114°07'0 0.0
2016-Jul-27 22:33N 22°20' E 114°07'0 0.0
2016-Jul-27 21:27N 22°20' E 114°07'0 0.0
2016-Jul-27 20:27N 22°20' E 114°07'0 0.0
2016-Jul-27 19:27N 22°20' E 114°07'0 0.0
2016-Jul-27 18:27N 22°20' E 114°07'1 1.5
2016-Jul-27 17:33N 22°19' E 114°06'18 8.8
2016-Jul-27 15:31N 22°08' E 114°22'7 6.3
2016-Jul-27 14:25N 22°05' E 114°29'0 0.1
2016-Jul-27 13:28N 22°05' E 114°29'0 0.0
2016-Jul-27 12:07N 22°05' E 114°29'0 0.0
2016-Jul-27 11:25N 22°05' E 114°29'0 0.0
2016-Jul-27 10:25N 22°05' E 114°29'0 0.0
2016-Jul-27 09:28N 22°05' E 114°29'0 0.1
2016-Jul-27 08:25N 22°05' E 114°29'0 0.1
2016-Jul-27 07:31N 22°05' E 114°29'1 0.6
2016-Jul-27 06:32N 22°05' E 114°29'12915.5
2016-Jul-26 22:12N 22°43' E 116°43'10515.2
2016-Jul-26 15:18N 23°46' E 118°14'2815.9
2016-Jul-26 13:33N 24°05' E 118°35'1616.2
2016-Jul-26 12:33N 24°17' E 118°48'1616.4
2016-Jul-26 11:33N 24°27' E 119°02'1615.6
2016-Jul-26 10:33N 24°38' E 119°15'1615.5
2016-Jul-26 09:31N 24°48' E 119°28'1515.7
2016-Jul-26 08:33N 24°60' E 119°39'1716.3
2016-Jul-26 07:30N 25°12' E 119°53'1716.3
2016-Jul-26 06:29N 25°25' E 120°04'27616.3
2016-Jul-25 13:29N 29°32' E 122°24'1515.9
2016-Jul-25 12:32N 29°46' E 122°17'1212.5
2016-Jul-25 11:33N 29°55' E 122°08'1414.0
2016-Jul-25 10:34N 29°57' E 121°52'2 1.6
2016-Jul-25 09:23N 29°57' E 121°50'0 0.0
2016-Jul-25 04:29N 29°57' E 121°50'1 1.3
2016-Jul-25 03:33N 29°58' E 121°51'10 9.3
2016-Jul-25 02:31N 29°56' E 122°02'1212.1
2016-Jul-25 01:33N 29°50' E 122°13'9 9.1
2016-Jul-25 00:33N 29°45' E 122°22'4814.7
2016-Jul-24 21:18N 30°20' E 122°60'1317.4
2016-Jul-24 20:33N 30°33' E 123°01'11416.3
2016-Jul-24 13:32N 32°26' E 122°45'3517.7
2016-Jul-24 11:32N 33°01' E 122°40'1917.4
2016-Jul-24 10:27N 33°20' E 122°35'1817.4
2016-Jul-24 09:27N 33°37' E 122°32'  
2016-Jul-19 13:33N 34°31' E 138°24'5416.1
2016-Jul-19 10:13N 34°54' E 139°22'1316.5
2016-Jul-19 09:25N 35°02' E 139°35'1315.5
2016-Jul-19 08:33N 35°12' E 139°46'1212.4
2016-Jul-19 07:33N 35°24' E 139°42'3 2.8
2016-Jul-19 06:32N 35°27' E 139°41'0 0.0
2016-Jul-19 04:32N 35°27' E 139°41'0 0.0
2016-Jul-19 03:32N 35°27' E 139°41'0 0.0
2016-Jul-19 02:32N 35°27' E 139°41'0 0.0
2016-Jul-19 01:29N 35°27' E 139°41'0 0.0
2016-Jul-19 00:32N 35°27' E 139°41'0 0.0
2016-Jul-18 23:32N 35°27' E 139°41'1 0.8
2016-Jul-18 22:34N 35°27' E 139°42'5 4.5
2016-Jul-18 21:34N 35°27' E 139°47'9 8.9
2016-Jul-18 20:33N 35°36' E 139°46'0 0.2
2016-Jul-18 19:34N 35°36' E 139°46'  
Track history (hours):
 
Tides and Currents Weather Stations Pressure Air Temp Water Temp Dewpoint Dewpoint Depression Visibility Wind Speed Wind Dir Waves Ship Positions

Wan Hai 273

Last reported at 2016-Jul-28 19:32 UTC. Time now 2016-Jul-28 20:19 UTC.
Position N 22°17' E 114°06'.

Length 172 m; draft 9.4 m.

Type: Cargo ship. MMSI: 566406000.

Date/timePositionNaut miles runAvg speedWind from/ knotsBaromVisibWave heightAir tempDewpointWater temp
2016-Jul-28 19:32N 22°17' E 114°06'1110.8
2016-Jul-28 18:33N 22°22' E 113°55'6 6.2
2016-Jul-28 17:33N 22°28' E 113°54'0 0.2
2016-Jul-28 16:29N 22°28' E 113°54'0 0.0
2016-Jul-28 15:29N 22°28' E 113°54'0 0.0
2016-Jul-28 14:29N 22°28' E 113°54'0 0.0
2016-Jul-28 13:23N 22°28' E 113°54'0 0.0
2016-Jul-28 12:29N 22°28' E 113°54'0 0.0
2016-Jul-28 11:23N 22°28' E 113°54'0 0.0
2016-Jul-28 10:23N 22°28' E 113°54'0 0.0
2016-Jul-28 09:29N 22°28' E 113°54'14 7.1
2016-Jul-28 07:29N 22°20' E 114°07'0 0.1
2016-Jul-28 06:33N 22°20' E 114°07'0 0.0
2016-Jul-28 05:21N 22°20' E 114°07'0 0.0
2016-Jul-28 04:33N 22°20' E 114°07'0 0.0
2016-Jul-28 03:33N 22°20' E 114°07'0 0.0
2016-Jul-28 00:15N 22°20' E 114°07'0 0.0
2016-Jul-27 23:33N 22°20' E 114°07'0 0.0
2016-Jul-27 22:33N 22°20' E 114°07'0 0.0
2016-Jul-27 21:27N 22°20' E 114°07'0 0.0
2016-Jul-27 20:27N 22°20' E 114°07'0 0.0
2016-Jul-27 19:27N 22°20' E 114°07'0 0.0
2016-Jul-27 18:27N 22°20' E 114°07'1 1.5
2016-Jul-27 17:33N 22°19' E 114°06'18 8.8
2016-Jul-27 15:31N 22°08' E 114°22'7 6.3
2016-Jul-27 14:25N 22°05' E 114°29'0 0.1
2016-Jul-27 13:28N 22°05' E 114°29'0 0.0
2016-Jul-27 12:07N 22°05' E 114°29'0 0.0
2016-Jul-27 11:25N 22°05' E 114°29'0 0.0
2016-Jul-27 10:25N 22°05' E 114°29'0 0.0
2016-Jul-27 09:28N 22°05' E 114°29'0 0.1
2016-Jul-27 08:25N 22°05' E 114°29'0 0.1
2016-Jul-27 07:31N 22°05' E 114°29'1 0.6
2016-Jul-27 06:32N 22°05' E 114°29'12915.5
2016-Jul-26 22:12N 22°43' E 116°43'10515.2
2016-Jul-26 15:18N 23°46' E 118°14'2815.9
2016-Jul-26 13:33N 24°05' E 118°35'1616.2
2016-Jul-26 12:33N 24°17' E 118°48'1616.4
2016-Jul-26 11:33N 24°27' E 119°02'1615.6
2016-Jul-26 10:33N 24°38' E 119°15'1615.5
2016-Jul-26 09:31N 24°48' E 119°28'1515.7
2016-Jul-26 08:33N 24°60' E 119°39'1716.3
2016-Jul-26 07:30N 25°12' E 119°53'1716.3
2016-Jul-26 06:29N 25°25' E 120°04'27616.3
2016-Jul-25 13:29N 29°32' E 122°24'1515.9
2016-Jul-25 12:32N 29°46' E 122°17'1212.5
2016-Jul-25 11:33N 29°55' E 122°08'1414.0
2016-Jul-25 10:34N 29°57' E 121°52'2 1.6
2016-Jul-25 09:23N 29°57' E 121°50'0 0.0
2016-Jul-25 04:29N 29°57' E 121°50'1 1.3
2016-Jul-25 03:33N 29°58' E 121°51'10 9.3
2016-Jul-25 02:31N 29°56' E 122°02'1212.1
2016-Jul-25 01:33N 29°50' E 122°13'9 9.1
2016-Jul-25 00:33N 29°45' E 122°22'4814.7
2016-Jul-24 21:18N 30°20' E 122°60'1317.4
2016-Jul-24 20:33N 30°33' E 123°01'11416.3
2016-Jul-24 13:32N 32°26' E 122°45'3517.7
2016-Jul-24 11:32N 33°01' E 122°40'1917.4
2016-Jul-24 10:27N 33°20' E 122°35'1817.4
2016-Jul-24 09:27N 33°37' E 122°32'  
2016-Jul-19 13:33N 34°31' E 138°24'5416.1
2016-Jul-19 10:13N 34°54' E 139°22'1316.5
2016-Jul-19 09:25N 35°02' E 139°35'1315.5
2016-Jul-19 08:33N 35°12' E 139°46'1212.4
2016-Jul-19 07:33N 35°24' E 139°42'3 2.8
2016-Jul-19 06:32N 35°27' E 139°41'0 0.0
2016-Jul-19 04:32N 35°27' E 139°41'0 0.0
2016-Jul-19 03:32N 35°27' E 139°41'0 0.0
2016-Jul-19 02:32N 35°27' E 139°41'0 0.0
2016-Jul-19 01:29N 35°27' E 139°41'0 0.0
2016-Jul-19 00:32N 35°27' E 139°41'0 0.0
2016-Jul-18 23:32N 35°27' E 139°41'1 0.8
2016-Jul-18 22:34N 35°27' E 139°42'5 4.5
2016-Jul-18 21:34N 35°27' E 139°47'9 8.9
2016-Jul-18 20:33N 35°36' E 139°46'0 0.2
2016-Jul-18 19:34N 35°36' E 139°46'  

Dump ship's entire track history